createdAt,value
2023-01-20T00:01:16.605Z,11.28
2023-01-20T00:06:14.901Z,11.36
2023-01-20T00:11:14.080Z,11.40
2023-01-20T00:16:12.413Z,11.64
2023-01-20T00:21:11.973Z,11.82
2023-01-20T00:26:11.229Z,11.86
2023-01-20T00:31:17.382Z,11.93
2023-01-20T00:36:16.656Z,12.01
2023-01-20T00:41:15.147Z,11.98
2023-01-20T00:46:14.955Z,11.96
2023-01-20T00:51:13.191Z,11.86
2023-01-20T00:56:11.063Z,11.95
2023-01-20T01:01:09.014Z,11.82
2023-01-20T01:06:09.650Z,11.80
2023-01-20T01:11:07.712Z,11.81
2023-01-20T01:16:05.714Z,11.78
2023-01-20T01:21:08.459Z,11.80
2023-01-20T01:26:06.493Z,11.80
2023-01-20T01:31:05.434Z,11.14
2023-01-20T01:36:04.206Z,11.65
2023-01-20T01:41:03.484Z,11.72
2023-01-20T01:46:01.837Z,11.81
2023-01-20T01:51:00.826Z,11.75
2023-01-20T01:56:00.006Z,11.84
2023-01-20T02:00:59.303Z,11.87
2023-01-20T02:05:57.250Z,11.91
2023-01-20T02:10:55.081Z,11.92
2023-01-20T02:15:59.772Z,11.53
2023-01-20T02:21:12.863Z,11.94
2023-01-20T02:26:18.573Z,11.84
2023-01-20T02:31:30.189Z,11.81
2023-01-20T02:36:33.706Z,11.49
2023-01-20T02:41:36.576Z,11.60
2023-01-20T02:46:37.947Z,11.39
2023-01-20T02:51:42.162Z,11.50
2023-01-20T02:56:40.841Z,11.41
2023-01-20T03:01:41.623Z,11.13
2023-01-20T03:06:43.854Z,11.42
2023-01-20T03:11:43.676Z,11.36
2023-01-20T03:16:42.514Z,11.34
2023-01-20T03:21:42.016Z,11.04
2023-01-20T03:26:39.851Z,10.94
2023-01-20T03:31:39.396Z,11.17
2023-01-20T03:36:38.285Z,11.03
2023-01-20T03:41:42.743Z,11.15
2023-01-20T03:46:43.763Z,11.29
2023-01-20T03:51:47.878Z,11.05
2023-01-20T03:56:50.081Z,10.93
2023-01-20T04:01:48.352Z,10.85
2023-01-20T04:06:46.804Z,10.50
2023-01-20T04:11:44.652Z,10.43
2023-01-20T04:16:45.271Z,10.38
2023-01-20T04:21:45.116Z,10.35
2023-01-20T04:26:43.218Z,10.32
2023-01-20T04:31:41.124Z,10.28
2023-01-20T04:36:40.353Z,10.42
2023-01-20T04:41:38.165Z,10.61
2023-01-20T04:46:37.066Z,10.68
2023-01-20T04:51:35.079Z,10.83
2023-01-20T04:56:34.245Z,11.19
2023-01-20T05:01:32.106Z,11.33
2023-01-20T05:06:29.932Z,11.33
2023-01-20T05:11:27.907Z,11.44
2023-01-20T05:16:32.005Z,11.59
2023-01-20T05:21:30.034Z,11.71
2023-01-20T05:26:27.993Z,11.73
2023-01-20T05:31:28.486Z,11.97
2023-01-20T05:36:28.363Z,12.04
2023-01-20T05:41:26.169Z,12.39
2023-01-20T05:46:26.371Z,12.60
2023-01-20T05:51:26.407Z,12.61
2023-01-20T05:56:24.419Z,12.49
2023-01-20T06:01:22.357Z,12.52
2023-01-20T06:06:21.479Z,12.54
2023-01-20T06:11:23.219Z,12.48
2023-01-20T06:16:30.186Z,12.30
2023-01-20T06:21:28.136Z,12.79
2023-01-20T06:26:27.309Z,13.12
2023-01-20T06:31:26.421Z,13.44
2023-01-20T06:36:24.669Z,13.50
2023-01-20T06:41:26.194Z,13.23
2023-01-20T06:46:25.595Z,13.90
2023-01-20T06:51:23.663Z,14.06
2023-01-20T06:56:26.237Z,14.40
2023-01-20T07:01:30.829Z,13.88
2023-01-20T07:06:31.756Z,13.51
2023-01-20T07:11:46.393Z,13.51
2023-01-20T07:16:45.889Z,13.60
2023-01-20T07:21:44.029Z,13.63
2023-01-20T07:26:45.091Z,13.64
2023-01-20T07:31:45.894Z,13.82
2023-01-20T07:36:52.231Z,14.05
2023-01-20T07:42:01.767Z,14.25
2023-01-20T07:46:59.851Z,14.33
2023-01-20T07:52:02.434Z,14.51
2023-01-20T07:57:00.575Z,15.00
2023-01-20T08:01:58.523Z,14.85
2023-01-20T08:06:56.802Z,14.83
2023-01-20T08:11:56.098Z,14.76
2023-01-20T08:16:56.294Z,14.56
2023-01-20T08:22:02.800Z,14.63
2023-01-20T08:27:02.492Z,14.68
2023-01-20T08:32:11.119Z,14.86
2023-01-20T08:37:09.835Z,15.16
2023-01-20T08:42:09.076Z,15.48
2023-01-20T08:47:07.884Z,15.59
2023-01-20T08:52:06.271Z,15.69
2023-01-20T08:57:14.707Z,15.80
2023-01-20T09:02:13.778Z,15.67
2023-01-20T09:07:14.612Z,15.85
2023-01-20T09:12:16.911Z,15.97
2023-01-20T09:17:15.232Z,15.91
2023-01-20T09:22:13.030Z,16.10
2023-01-20T09:27:13.307Z,16.34
2023-01-20T09:32:24.662Z,16.60
2023-01-20T09:37:42.426Z,17.07
2023-01-20T09:43:05.733Z,17.35
2023-01-20T09:48:29.996Z,17.73
2023-01-20T09:53:35.736Z,17.55
2023-01-20T09:58:37.310Z,17.74
2023-01-20T10:03:39.409Z,18.25
2023-01-20T10:08:40.492Z,20.02
2023-01-20T10:13:47.370Z,20.94
2023-01-20T10:18:49.368Z,21.44
2023-01-20T10:23:49.714Z,20.10
2023-01-20T10:28:50.689Z,19.30
2023-01-20T10:33:50.046Z,18.69
2023-01-20T10:38:53.107Z,18.36
2023-01-20T10:43:51.294Z,18.44
2023-01-20T10:49:04.712Z,18.34
2023-01-20T10:54:09.843Z,18.08
2023-01-20T10:59:11.101Z,17.88
2023-01-20T11:04:17.779Z,17.87
2023-01-20T11:09:21.036Z,17.44
2023-01-20T11:14:18.873Z,17.59
2023-01-20T11:19:18.061Z,17.58
2023-01-20T11:24:29.378Z,17.53
2023-01-20T11:29:29.247Z,17.75
2023-01-20T11:34:30.167Z,17.70
2023-01-20T11:39:29.746Z,17.69
2023-01-20T11:44:27.627Z,18.00
2023-01-20T11:49:25.496Z,17.41
2023-01-20T11:54:25.434Z,17.25
2023-01-20T11:59:25.490Z,17.19
2023-01-20T12:04:47.202Z,17.21
2023-01-20T12:09:48.195Z,17.40
2023-01-20T12:14:48.305Z,17.56
2023-01-20T12:19:55.299Z,19.50
2023-01-20T12:25:13.195Z,18.81
2023-01-20T12:30:20.843Z,17.77
2023-01-20T12:35:22.917Z,17.72
2023-01-20T12:40:27.123Z,17.78
2023-01-20T12:45:31.789Z,17.32
2023-01-20T12:50:33.339Z,16.86
2023-01-20T12:55:38.849Z,16.67
2023-01-20T13:00:51.561Z,16.34
2023-01-20T13:06:01.323Z,16.19
2023-01-20T13:11:07.259Z,16.17
2023-01-20T13:16:10.531Z,16.03
2023-01-20T13:21:10.774Z,15.88
2023-01-20T13:26:10.261Z,15.63
2023-01-20T13:31:23.158Z,15.56
2023-01-20T13:36:22.129Z,15.85
2023-01-20T13:41:38.361Z,15.58
2023-01-20T13:46:45.325Z,15.80
2023-01-20T13:51:44.307Z,15.64
2023-01-20T13:56:42.198Z,15.85
2023-01-20T14:01:40.184Z,15.73
2023-01-20T14:06:45.828Z,15.43
2023-01-20T14:11:50.218Z,15.36
2023-01-20T14:16:48.747Z,15.12
2023-01-20T14:21:53.167Z,15.06
2023-01-20T14:26:51.115Z,15.46
2023-01-20T14:31:54.216Z,14.73
2023-01-20T14:36:54.000Z,14.49
2023-01-20T14:41:52.837Z,14.46
2023-01-20T14:46:57.354Z,14.16
2023-01-20T14:51:56.698Z,13.95
2023-01-20T14:56:54.561Z,14.01
2023-01-20T15:01:53.741Z,13.88
2023-01-20T15:06:58.078Z,13.60
2023-01-20T15:12:10.813Z,13.57
2023-01-20T15:17:09.987Z,13.50
2023-01-20T15:22:28.682Z,13.40
2023-01-20T15:27:33.451Z,13.39
2023-01-20T15:32:31.502Z,13.29
2023-01-20T15:37:29.376Z,13.39
2023-01-20T15:42:27.207Z,13.64
2023-01-20T15:47:31.024Z,13.54
2023-01-20T15:52:29.377Z,13.41
2023-01-20T15:57:27.313Z,13.21
2023-01-20T16:02:25.480Z,13.25
2023-01-20T16:07:25.392Z,13.39
2023-01-20T16:12:23.746Z,13.35
2023-01-20T16:17:23.178Z,13.37
2023-01-20T16:22:21.026Z,13.56
2023-01-20T16:27:20.874Z,13.81
2023-01-20T16:32:22.132Z,13.89
2023-01-20T16:37:20.367Z,13.59
2023-01-20T16:42:19.450Z,13.47
2023-01-20T16:47:18.732Z,13.52
2023-01-20T16:52:16.620Z,13.54
2023-01-20T16:57:14.562Z,13.31
2023-01-20T17:02:12.500Z,12.96
2023-01-20T17:07:11.849Z,13.08
2023-01-20T17:12:09.855Z,13.16
2023-01-20T17:17:07.719Z,12.92
2023-01-20T17:22:05.821Z,13.03
2023-01-20T17:27:05.079Z,13.08
2023-01-20T17:32:04.022Z,11.22
2023-01-20T17:37:02.393Z,10.07
2023-01-20T17:42:00.257Z,9.19
2023-01-20T17:46:59.519Z,9.20
2023-01-20T17:51:58.874Z,9.11
2023-01-20T17:56:59.448Z,8.89
2023-01-20T18:01:57.293Z,9.00
2023-01-20T18:07:20.741Z,8.92
2023-01-20T18:12:18.658Z,8.75
2023-01-20T18:17:17.315Z,8.15
2023-01-20T18:22:19.037Z,7.86
2023-01-20T18:27:18.972Z,7.65
2023-01-20T18:32:19.181Z,7.26
2023-01-20T18:37:18.787Z,7.11
2023-01-20T18:42:20.548Z,6.48
2023-01-20T18:47:18.629Z,6.27
2023-01-20T18:52:20.533Z,6.18
2023-01-20T18:57:18.400Z,6.03
2023-01-20T19:02:16.245Z,5.71
2023-01-20T19:07:19.187Z,5.80
2023-01-20T19:12:18.754Z,5.62
2023-01-20T19:17:17.522Z,5.54
2023-01-20T19:22:15.991Z,5.43
2023-01-20T19:27:15.499Z,5.38
2023-01-20T19:32:14.801Z,5.28
2023-01-20T19:37:12.713Z,5.51
2023-01-20T19:42:10.551Z,5.39
2023-01-20T19:47:09.269Z,5.43
2023-01-20T19:52:08.672Z,5.17
2023-01-20T19:57:06.744Z,5.30
2023-01-20T20:02:06.305Z,5.32
2023-01-20T20:07:22.780Z,5.43
2023-01-20T20:12:21.045Z,5.44
2023-01-20T20:17:18.974Z,5.48
2023-01-20T20:22:16.859Z,5.54
2023-01-20T20:27:16.142Z,5.51
2023-01-20T20:32:14.016Z,5.61
2023-01-20T20:37:11.883Z,5.12
2023-01-20T20:42:09.744Z,5.08
2023-01-20T20:47:09.012Z,5.00
2023-01-20T20:52:07.014Z,4.96
2023-01-20T20:57:04.906Z,4.95
2023-01-20T21:02:02.801Z,4.92
2023-01-20T21:07:02.242Z,4.95
2023-01-20T21:12:00.048Z,4.95
2023-01-20T21:16:57.984Z,4.86
2023-01-20T21:21:55.820Z,4.83
2023-01-20T21:26:54.990Z,4.66
2023-01-20T21:31:53.819Z,4.73
2023-01-20T21:36:51.731Z,4.66
2023-01-20T21:41:49.593Z,4.61
2023-01-20T21:46:49.631Z,4.68
2023-01-20T21:52:04.730Z,4.62
2023-01-20T21:57:02.943Z,4.62
2023-01-20T22:02:02.228Z,4.64
2023-01-20T22:07:00.232Z,4.57
2023-01-20T22:11:58.105Z,4.80
2023-01-20T22:16:55.947Z,4.67
2023-01-20T22:21:56.868Z,4.65
2023-01-20T22:26:54.848Z,4.58
2023-01-20T22:31:53.770Z,4.56
2023-01-20T22:36:51.616Z,4.44
2023-01-20T22:41:50.787Z,4.38
2023-01-20T22:46:48.583Z,4.70
2023-01-20T22:51:46.399Z,4.46
2023-01-20T22:56:44.202Z,4.43
2023-01-20T23:01:43.447Z,4.35
2023-01-20T23:06:41.258Z,4.46
2023-01-20T23:11:40.459Z,4.39
2023-01-20T23:16:38.336Z,4.28
2023-01-20T23:21:37.520Z,4.36
2023-01-20T23:26:35.337Z,4.38
2023-01-20T23:31:35.337Z,4.45
2023-01-20T23:36:33.332Z,4.44
2023-01-20T23:41:32.522Z,4.33
2023-01-20T23:46:30.462Z,4.46
2023-01-20T23:51:28.334Z,4.35
2023-01-20T23:56:26.420Z,4.23
